createdAt,value
2022-10-05T00:04:55.937Z,9.09
2022-10-05T00:09:59.515Z,9.08
2022-10-05T00:15:02.313Z,9.10
2022-10-05T00:20:26.354Z,9.09
2022-10-05T00:25:29.107Z,9.10
2022-10-05T00:30:33.232Z,9.12
2022-10-05T00:35:36.078Z,9.15
2022-10-05T00:41:08.471Z,9.13
2022-10-05T00:46:50.305Z,9.14
2022-10-05T00:52:56.281Z,9.17
2022-10-05T00:58:28.140Z,9.17
2022-10-05T01:03:57.208Z,9.15
2022-10-05T01:09:16.011Z,9.16
2022-10-05T01:14:33.036Z,9.16
2022-10-05T01:20:00.503Z,9.21
2022-10-05T01:25:24.247Z,9.25
2022-10-05T01:30:26.883Z,9.30
2022-10-05T01:36:23.371Z,9.31
2022-10-05T01:41:39.458Z,9.34
2022-10-05T01:46:47.361Z,9.34
2022-10-05T01:52:15.053Z,9.35
2022-10-05T01:57:36.675Z,9.40
2022-10-05T02:02:57.518Z,9.42
2022-10-05T02:08:08.339Z,9.43
2022-10-05T02:13:18.853Z,9.43
2022-10-05T02:18:27.430Z,9.42
2022-10-05T02:23:32.888Z,9.38
2022-10-05T02:28:42.996Z,9.32
2022-10-05T02:33:45.765Z,9.27
2022-10-05T02:39:00.398Z,9.18
2022-10-05T02:44:40.301Z,9.10
2022-10-05T02:49:58.418Z,9.04
2022-10-05T02:55:19.807Z,8.85
2022-10-05T03:00:24.368Z,8.79
2022-10-05T03:06:02.668Z,8.80
2022-10-05T03:11:18.768Z,8.85
2022-10-05T03:16:52.289Z,8.83
2022-10-05T03:22:50.446Z,8.72
2022-10-05T03:28:34.343Z,8.70
2022-10-05T03:34:00.742Z,8.72
2022-10-05T03:39:14.435Z,8.73
2022-10-05T03:44:38.769Z,8.77
2022-10-05T03:49:53.429Z,8.85
2022-10-05T03:55:15.144Z,8.87
2022-10-05T04:00:23.223Z,8.88
2022-10-05T04:05:32.596Z,8.88
2022-10-05T04:10:46.178Z,8.85
2022-10-05T04:16:08.817Z,8.85
2022-10-05T04:21:25.682Z,8.87
2022-10-05T04:26:42.002Z,8.85
2022-10-05T04:31:57.573Z,8.85
2022-10-05T04:37:04.610Z,8.78
2022-10-05T04:42:26.332Z,8.71
2022-10-05T04:48:19.905Z,8.59
2022-10-05T04:53:45.676Z,8.52
2022-10-05T04:59:21.526Z,8.48
2022-10-05T05:05:21.091Z,8.41
2022-10-05T05:11:06.500Z,8.36
2022-10-05T05:16:44.688Z,8.40
2022-10-05T05:22:41.047Z,8.48
2022-10-05T05:28:05.750Z,8.67
2022-10-05T05:33:21.694Z,8.82
2022-10-05T05:38:33.544Z,8.91
2022-10-05T05:43:53.023Z,9.03
2022-10-05T05:48:56.452Z,9.12
2022-10-05T05:54:33.287Z,9.20
2022-10-05T06:00:17.615Z,9.33
2022-10-05T06:05:28.044Z,9.39
2022-10-05T06:10:35.299Z,9.50
2022-10-05T06:16:06.871Z,9.64
2022-10-05T06:21:21.419Z,9.75
2022-10-05T06:27:07.381Z,9.92
2022-10-05T06:32:50.756Z,10.05
2022-10-05T06:38:05.278Z,10.19
2022-10-05T06:43:33.588Z,10.39
2022-10-05T06:49:20.517Z,10.54
2022-10-05T06:54:38.105Z,10.64
2022-10-05T06:59:55.438Z,10.74
2022-10-05T07:05:35.939Z,10.89
2022-10-05T07:11:15.369Z,10.96
2022-10-05T07:16:38.554Z,11.05
2022-10-05T07:22:18.969Z,11.17
2022-10-05T07:27:23.987Z,11.29
2022-10-05T07:33:02.494Z,11.37
2022-10-05T07:38:32.089Z,11.48
2022-10-05T07:44:02.632Z,11.70
2022-10-05T07:49:23.191Z,11.96
2022-10-05T07:54:34.413Z,12.24
2022-10-05T08:00:07.384Z,12.44
2022-10-05T08:05:23.656Z,12.56
2022-10-05T08:10:31.931Z,12.59
2022-10-05T08:15:45.987Z,12.74
2022-10-05T08:20:57.056Z,12.93
2022-10-05T08:26:42.409Z,13.06
2022-10-05T08:31:49.071Z,13.17
2022-10-05T08:37:29.062Z,13.49
2022-10-05T08:43:32.995Z,13.79
2022-10-05T08:48:56.583Z,14.06
2022-10-05T08:54:20.610Z,14.25
2022-10-05T09:00:09.280Z,14.39
2022-10-05T09:05:45.169Z,14.46
2022-10-05T09:11:03.998Z,14.62
2022-10-05T09:16:39.353Z,14.75
2022-10-05T09:21:58.188Z,14.88
2022-10-05T09:27:10.236Z,15.05
2022-10-05T09:32:51.681Z,15.23
2022-10-05T09:38:20.578Z,15.24
2022-10-05T09:44:04.843Z,15.32
2022-10-05T09:49:38.390Z,15.42
2022-10-05T09:55:24.117Z,15.53
2022-10-05T10:00:54.240Z,15.61
2022-10-05T10:06:33.846Z,15.77
2022-10-05T10:12:25.554Z,15.83
2022-10-05T10:17:43.202Z,15.84
2022-10-05T10:22:57.659Z,15.87
2022-10-05T10:28:37.785Z,15.87
2022-10-05T10:34:06.841Z,15.85
2022-10-05T10:39:57.832Z,16.23
2022-10-05T10:45:25.194Z,16.73
2022-10-05T10:50:44.041Z,16.82
2022-10-05T10:56:05.710Z,16.94
2022-10-05T11:01:35.324Z,17.02
2022-10-05T11:07:29.005Z,17.27
2022-10-05T11:13:12.395Z,17.70
2022-10-05T11:18:22.619Z,17.97
2022-10-05T11:24:09.083Z,18.12
2022-10-05T11:30:01.915Z,18.17
2022-10-05T11:35:24.623Z,18.25
2022-10-05T11:41:15.979Z,18.29
2022-10-05T11:46:37.826Z,18.27
2022-10-05T11:51:55.147Z,18.28
2022-10-05T11:57:05.691Z,18.49
2022-10-05T12:02:38.868Z,18.63
2022-10-05T12:08:06.826Z,18.63
2022-10-05T12:13:24.808Z,18.63
2022-10-05T12:18:31.116Z,18.68
2022-10-05T12:23:40.007Z,18.73
2022-10-05T12:28:49.673Z,18.72
2022-10-05T12:34:26.876Z,18.64
2022-10-05T12:39:55.261Z,18.67
2022-10-05T12:45:20.303Z,18.58
2022-10-05T12:50:37.185Z,18.38
2022-10-05T12:55:53.932Z,18.27
2022-10-05T13:01:52.185Z,18.19
2022-10-05T13:07:13.313Z,18.16
2022-10-05T13:12:58.882Z,18.12
2022-10-05T13:18:18.986Z,18.17
2022-10-05T13:23:34.864Z,18.19
2022-10-05T13:28:59.287Z,18.16
2022-10-05T13:34:14.329Z,18.13
2022-10-05T13:39:46.934Z,18.03
2022-10-05T13:45:25.335Z,17.90
2022-10-05T13:50:33.622Z,17.86
2022-10-05T13:55:46.638Z,17.73
2022-10-05T14:00:55.998Z,17.58
2022-10-05T14:06:01.513Z,17.36
2022-10-05T14:11:36.244Z,17.22
2022-10-05T14:17:33.890Z,17.07
2022-10-05T14:22:41.217Z,16.85
2022-10-05T14:28:11.488Z,16.77
2022-10-05T14:33:16.152Z,16.71
2022-10-05T14:38:23.556Z,16.76
2022-10-05T14:43:26.212Z,16.68
2022-10-05T14:48:40.159Z,16.58
2022-10-05T14:54:00.943Z,16.46
2022-10-05T15:00:12.419Z,16.38
2022-10-05T15:05:28.974Z,16.23
2022-10-05T15:10:43.389Z,16.08
2022-10-05T15:15:54.817Z,15.91
2022-10-05T15:21:22.625Z,15.80
2022-10-05T15:26:53.470Z,15.70
2022-10-05T15:32:41.780Z,15.59
2022-10-05T15:37:49.478Z,15.43
2022-10-05T15:42:53.292Z,15.29
2022-10-05T15:48:36.523Z,15.21
2022-10-05T15:54:20.614Z,15.12
2022-10-05T15:59:48.636Z,15.01
2022-10-05T16:05:48.313Z,14.92
2022-10-05T16:10:51.075Z,14.78
2022-10-05T16:16:27.952Z,14.69
2022-10-05T16:21:46.029Z,14.60
2022-10-05T16:27:05.999Z,14.52
2022-10-05T16:32:30.350Z,14.46
2022-10-05T16:37:57.611Z,14.42
2022-10-05T16:44:03.990Z,14.36
2022-10-05T16:49:51.362Z,14.27
2022-10-05T16:54:57.613Z,14.23
2022-10-05T17:00:23.749Z,14.16
2022-10-05T17:05:56.078Z,14.08
2022-10-05T17:11:31.440Z,14.01
2022-10-05T17:16:45.868Z,13.94
2022-10-05T17:22:03.146Z,13.91
2022-10-05T17:27:51.127Z,13.88
2022-10-05T17:33:20.302Z,13.83
2022-10-05T17:38:44.648Z,13.80
2022-10-05T17:44:16.413Z,13.79
2022-10-05T17:50:18.106Z,13.73
2022-10-05T17:55:32.926Z,13.67
2022-10-05T18:00:43.573Z,13.62
2022-10-05T18:05:46.394Z,13.57
2022-10-05T18:11:25.957Z,13.55
2022-10-05T18:17:02.020Z,13.48
2022-10-05T18:22:16.891Z,13.40
2022-10-05T18:28:22.437Z,13.33
2022-10-05T18:33:47.225Z,13.28
2022-10-05T18:39:11.581Z,13.29
2022-10-05T18:45:02.541Z,13.28
2022-10-05T18:50:25.337Z,13.20
2022-10-05T18:56:02.342Z,13.15
2022-10-05T19:01:36.851Z,13.17
2022-10-05T19:06:58.534Z,13.18
2022-10-05T19:12:32.427Z,13.15
2022-10-05T19:18:30.500Z,13.16
2022-10-05T19:24:04.708Z,13.18
2022-10-05T19:29:38.851Z,13.16
2022-10-05T19:35:02.413Z,13.11
2022-10-05T19:40:27.629Z,13.08
2022-10-05T19:45:33.616Z,13.05
2022-10-05T19:50:38.410Z,13.06
2022-10-05T19:55:43.621Z,13.00
2022-10-05T20:01:11.318Z,12.89
2022-10-05T20:06:14.008Z,12.83
2022-10-05T20:11:22.454Z,12.78
2022-10-05T20:21:52.124Z,12.59
2022-10-05T20:27:02.220Z,12.51
2022-10-05T20:32:13.860Z,12.46
2022-10-05T20:37:18.458Z,12.42
2022-10-05T20:42:21.337Z,12.40
2022-10-05T20:47:24.993Z,12.34
2022-10-05T20:52:27.716Z,12.27
2022-10-05T20:57:31.532Z,12.25
2022-10-05T21:02:34.199Z,12.25
2022-10-05T21:07:36.989Z,12.21
2022-10-05T21:12:39.778Z,12.13
2022-10-05T21:17:42.442Z,12.05
2022-10-05T21:22:45.163Z,12.00
2022-10-05T21:27:49.904Z,11.95
2022-10-05T21:38:00.229Z,11.78
2022-10-05T21:43:02.931Z,11.73
2022-10-05T21:48:05.749Z,11.67
2022-10-05T21:53:10.100Z,11.60
2022-10-05T21:58:12.804Z,11.48
2022-10-05T22:03:15.795Z,11.32
2022-10-05T22:08:26.468Z,11.19
2022-10-05T22:13:29.485Z,11.10
2022-10-05T22:18:32.275Z,11.02
2022-10-05T22:23:36.017Z,10.95
2022-10-05T22:28:39.320Z,10.90
2022-10-05T22:33:42.028Z,10.86
2022-10-05T22:38:46.640Z,10.78
2022-10-05T22:43:50.819Z,10.67
2022-10-05T22:48:53.667Z,10.59
2022-10-05T22:53:56.376Z,10.56
2022-10-05T22:58:59.052Z,10.54
2022-10-05T23:04:01.881Z,10.49
2022-10-05T23:09:04.595Z,10.49
2022-10-05T23:14:07.282Z,10.46
2022-10-05T23:19:10.560Z,10.38
2022-10-05T23:24:13.293Z,10.32
2022-10-05T23:29:16.032Z,10.30
2022-10-05T23:34:18.793Z,10.24
2022-10-05T23:39:21.623Z,10.21
2022-10-05T23:44:24.266Z,10.19
2022-10-05T23:49:26.971Z,10.14
2022-10-05T23:54:29.772Z,10.06
2022-10-05T23:59:32.459Z,9.99
